sensor_id;sensor_type;location;lat;lon;timestamp;P1;durP1;ratioP1;P2;durP2;ratioP2
47259;SDS011;32999;52.412;4.890;2023-04-24T00:04:05;0.77;;;0.50;;
47259;SDS011;32999;52.412;4.890;2023-04-24T00:09:10;0.75;;;0.50;;
47259;SDS011;32999;52.412;4.890;2023-04-24T00:20:21;0.77;;;0.40;;
47259;SDS011;32999;52.412;4.890;2023-04-24T00:25:23;1.65;;;0.50;;
47259;SDS011;32999;52.412;4.890;2023-04-24T02:02:51;6.93;;;1.17;;
47259;SDS011;32999;52.412;4.890;2023-04-24T02:07:55;5.28;;;1.55;;
47259;SDS011;32999;52.412;4.890;2023-04-24T02:13:00;2.30;;;1.00;;
47259;SDS011;32999;52.412;4.890;2023-04-24T02:18:02;2.80;;;1.27;;
47259;SDS011;32999;52.412;4.890;2023-04-24T02:23:04;5.38;;;1.40;;
47259;SDS011;32999;52.412;4.890;2023-04-24T02:28:07;8.02;;;1.60;;
47259;SDS011;32999;52.412;4.890;2023-04-24T02:33:09;4.82;;;1.30;;
47259;SDS011;32999;52.412;4.890;2023-04-24T02:38:12;7.25;;;1.52;;
47259;SDS011;32999;52.412;4.890;2023-04-24T02:43:15;6.45;;;0.90;;
47259;SDS011;32999;52.412;4.890;2023-04-24T02:48:17;1.02;;;0.60;;
47259;SDS011;32999;52.412;4.890;2023-04-24T02:53:20;5.35;;;1.20;;
47259;SDS011;32999;52.412;4.890;2023-04-24T02:58:25;3.35;;;1.35;;
47259;SDS011;32999;52.412;4.890;2023-04-24T03:03:27;4.65;;;1.38;;
47259;SDS011;32999;52.412;4.890;2023-04-24T03:08:34;18.48;;;2.10;;
47259;SDS011;32999;52.412;4.890;2023-04-24T03:13:41;3.20;;;1.17;;
47259;SDS011;32999;52.412;4.890;2023-04-24T03:18:56;1.85;;;1.27;;
47259;SDS011;32999;52.412;4.890;2023-04-24T03:23:59;1.17;;;0.80;;
47259;SDS011;32999;52.412;4.890;2023-04-24T03:29:05;1.08;;;0.30;;
47259;SDS011;32999;52.412;4.890;2023-04-24T03:34:10;0.40;;;0.40;;
47259;SDS011;32999;52.412;4.890;2023-04-24T03:39:30;2.47;;;0.73;;
47259;SDS011;32999;52.412;4.890;2023-04-24T03:44:50;3.03;;;0.95;;
47259;SDS011;32999;52.412;4.890;2023-04-24T03:49:52;1.52;;;0.70;;
47259;SDS011;32999;52.412;4.890;2023-04-24T03:54:55;2.55;;;0.70;;
47259;SDS011;32999;52.412;4.890;2023-04-24T04:18:29;1.75;;;0.88;;
47259;SDS011;32999;52.412;4.890;2023-04-24T04:23:31;3.67;;;1.75;;
47259;SDS011;32999;52.412;4.890;2023-04-24T04:34:38;4.15;;;1.27;;
47259;SDS011;32999;52.412;4.890;2023-04-24T04:39:51;4.80;;;1.55;;
47259;SDS011;32999;52.412;4.890;2023-04-24T04:44:54;7.55;;;2.33;;
47259;SDS011;32999;52.412;4.890;2023-04-24T04:49:59;8.30;;;2.78;;
47259;SDS011;32999;52.412;4.890;2023-04-24T04:55:08;4.68;;;2.00;;
47259;SDS011;32999;52.412;4.890;2023-04-24T05:05:24;4.13;;;0.90;;
47259;SDS011;32999;52.412;4.890;2023-04-24T05:10:26;2.95;;;1.02;;
47259;SDS011;32999;52.412;4.890;2023-04-24T05:15:27;8.40;;;1.67;;
47259;SDS011;32999;52.412;4.890;2023-04-24T05:26:08;10.40;;;5.10;;
47259;SDS011;32999;52.412;4.890;2023-04-24T05:31:10;13.20;;;6.75;;
47259;SDS011;32999;52.412;4.890;2023-04-24T05:36:34;18.90;;;8.55;;
47259;SDS011;32999;52.412;4.890;2023-04-24T05:41:40;25.92;;;10.10;;
47259;SDS011;32999;52.412;4.890;2023-04-24T05:46:42;18.38;;;9.23;;
47259;SDS011;32999;52.412;4.890;2023-04-24T05:51:47;23.08;;;10.02;;
47259;SDS011;32999;52.412;4.890;2023-04-24T05:56:51;17.23;;;9.32;;
47259;SDS011;32999;52.412;4.890;2023-04-24T06:01:54;21.92;;;8.63;;
47259;SDS011;32999;52.412;4.890;2023-04-24T06:18:45;15.60;;;6.47;;
47259;SDS011;32999;52.412;4.890;2023-04-24T06:24:14;16.85;;;6.65;;
47259;SDS011;32999;52.412;4.890;2023-04-24T06:36:13;16.63;;;6.90;;
47259;SDS011;32999;52.412;4.890;2023-04-24T06:42:24;18.83;;;6.50;;
47259;SDS011;32999;52.412;4.890;2023-04-24T06:47:33;10.95;;;5.07;;
47259;SDS011;32999;52.412;4.890;2023-04-24T07:04:25;16.20;;;4.70;;
47259;SDS011;32999;52.412;4.890;2023-04-24T07:09:34;17.50;;;5.47;;
47259;SDS011;32999;52.412;4.890;2023-04-24T07:14:43;20.35;;;5.05;;
47259;SDS011;32999;52.412;4.890;2023-04-24T07:20:06;14.05;;;4.82;;
47259;SDS011;32999;52.412;4.890;2023-04-24T07:30:42;17.93;;;3.57;;
47259;SDS011;32999;52.412;4.890;2023-04-24T07:36:01;21.13;;;4.80;;
47259;SDS011;32999;52.412;4.890;2023-04-24T08:04:50;13.27;;;3.05;;
47259;SDS011;32999;52.412;4.890;2023-04-24T08:10:17;15.18;;;2.00;;
47259;SDS011;32999;52.412;4.890;2023-04-24T08:16:10;20.00;;;2.03;;
47259;SDS011;32999;52.412;4.890;2023-04-24T08:21:38;11.52;;;2.72;;
47259;SDS011;32999;52.412;4.890;2023-04-24T08:26:40;11.55;;;1.73;;
47259;SDS011;32999;52.412;4.890;2023-04-24T08:32:03;11.73;;;2.45;;
47259;SDS011;32999;52.412;4.890;2023-04-24T08:42:55;5.65;;;1.20;;
47259;SDS011;32999;52.412;4.890;2023-04-24T08:48:15;16.00;;;1.90;;
47259;SDS011;32999;52.412;4.890;2023-04-24T09:00:10;7.28;;;1.30;;
47259;SDS011;32999;52.412;4.890;2023-04-24T09:05:19;8.37;;;1.47;;
47259;SDS011;32999;52.412;4.890;2023-04-24T09:10:24;10.38;;;1.65;;
47259;SDS011;32999;52.412;4.890;2023-04-24T09:15:26;7.07;;;1.50;;
47259;SDS011;32999;52.412;4.890;2023-04-24T09:20:30;12.23;;;1.90;;
47259;SDS011;32999;52.412;4.890;2023-04-24T09:25:33;7.17;;;1.57;;
47259;SDS011;32999;52.412;4.890;2023-04-24T09:30:36;9.88;;;1.70;;
47259;SDS011;32999;52.412;4.890;2023-04-24T09:35:41;11.10;;;1.52;;
47259;SDS011;32999;52.412;4.890;2023-04-24T09:40:44;5.25;;;1.58;;
47259;SDS011;32999;52.412;4.890;2023-04-24T09:45:56;7.15;;;1.10;;
47259;SDS011;32999;52.412;4.890;2023-04-24T09:51:32;4.25;;;1.77;;
47259;SDS011;32999;52.412;4.890;2023-04-24T09:56:50;4.40;;;0.88;;
47259;SDS011;32999;52.412;4.890;2023-04-24T10:01:52;6.97;;;2.00;;
47259;SDS011;32999;52.412;4.890;2023-04-24T10:06:56;3.97;;;0.70;;
47259;SDS011;32999;52.412;4.890;2023-04-24T10:11:59;3.55;;;0.60;;
47259;SDS011;32999;52.412;4.890;2023-04-24T10:17:02;2.47;;;0.52;;
47259;SDS011;32999;52.412;4.890;2023-04-24T10:22:06;8.57;;;1.30;;
47259;SDS011;32999;52.412;4.890;2023-04-24T10:27:08;9.38;;;0.73;;
47259;SDS011;32999;52.412;4.890;2023-04-24T10:32:11;4.18;;;0.90;;
47259;SDS011;32999;52.412;4.890;2023-04-24T10:37:14;4.05;;;0.85;;
47259;SDS011;32999;52.412;4.890;2023-04-24T10:42:16;4.13;;;0.93;;
47259;SDS011;32999;52.412;4.890;2023-04-24T10:47:18;3.40;;;0.68;;
47259;SDS011;32999;52.412;4.890;2023-04-24T10:52:22;3.20;;;0.70;;
47259;SDS011;32999;52.412;4.890;2023-04-24T10:57:27;3.00;;;0.80;;
47259;SDS011;32999;52.412;4.890;2023-04-24T11:02:35;4.72;;;1.33;;
47259;SDS011;32999;52.412;4.890;2023-04-24T11:13:16;5.38;;;1.40;;
47259;SDS011;32999;52.412;4.890;2023-04-24T11:18:18;13.00;;;3.50;;
47259;SDS011;32999;52.412;4.890;2023-04-24T11:23:21;4.05;;;0.73;;
47259;SDS011;32999;52.412;4.890;2023-04-24T11:28:23;13.60;;;3.80;;
47259;SDS011;32999;52.412;4.890;2023-04-24T11:33:25;17.38;;;4.95;;
47259;SDS011;32999;52.412;4.890;2023-04-24T11:38:29;5.30;;;1.10;;
47259;SDS011;32999;52.412;4.890;2023-04-24T11:43:30;3.35;;;0.88;;
47259;SDS011;32999;52.412;4.890;2023-04-24T11:48:34;11.07;;;2.33;;
47259;SDS011;32999;52.412;4.890;2023-04-24T11:53:41;9.02;;;3.13;;
47259;SDS011;32999;52.412;4.890;2023-04-24T11:58:44;11.05;;;1.90;;
47259;SDS011;32999;52.412;4.890;2023-04-24T12:04:20;3.67;;;0.98;;
47259;SDS011;32999;52.412;4.890;2023-04-24T12:09:23;8.20;;;1.17;;
47259;SDS011;32999;52.412;4.890;2023-04-24T12:14:26;8.77;;;1.52;;
47259;SDS011;32999;52.412;4.890;2023-04-24T12:19:27;6.53;;;1.75;;
47259;SDS011;32999;52.412;4.890;2023-04-24T12:24:32;14.00;;;1.77;;
47259;SDS011;32999;52.412;4.890;2023-04-24T12:29:34;10.43;;;1.98;;
47259;SDS011;32999;52.412;4.890;2023-04-24T12:34:36;6.03;;;1.33;;
47259;SDS011;32999;52.412;4.890;2023-04-24T12:39:42;10.05;;;2.30;;
47259;SDS011;32999;52.412;4.890;2023-04-24T12:44:59;11.65;;;1.67;;
47259;SDS011;32999;52.412;4.890;2023-04-24T12:50:08;9.85;;;1.88;;
47259;SDS011;32999;52.412;4.890;2023-04-24T12:55:13;10.73;;;1.73;;
47259;SDS011;32999;52.412;4.890;2023-04-24T13:00:15;12.25;;;2.17;;
47259;SDS011;32999;52.412;4.890;2023-04-24T13:05:17;11.68;;;2.00;;
47259;SDS011;32999;52.412;4.890;2023-04-24T13:10:21;8.52;;;2.17;;
47259;SDS011;32999;52.412;4.890;2023-04-24T13:15:24;6.45;;;2.33;;
47259;SDS011;32999;52.412;4.890;2023-04-24T13:20:26;10.68;;;2.58;;
47259;SDS011;32999;52.412;4.890;2023-04-24T13:25:30;9.25;;;1.48;;
47259;SDS011;32999;52.412;4.890;2023-04-24T13:30:37;5.93;;;1.17;;
47259;SDS011;32999;52.412;4.890;2023-04-24T13:35:39;9.35;;;2.30;;
47259;SDS011;32999;52.412;4.890;2023-04-24T13:40:44;14.13;;;1.73;;
47259;SDS011;32999;52.412;4.890;2023-04-24T13:45:46;11.07;;;2.90;;
47259;SDS011;32999;52.412;4.890;2023-04-24T13:50:47;9.65;;;2.65;;
47259;SDS011;32999;52.412;4.890;2023-04-24T13:55:51;8.55;;;1.42;;
47259;SDS011;32999;52.412;4.890;2023-04-24T14:00:52;4.03;;;1.10;;
47259;SDS011;32999;52.412;4.890;2023-04-24T14:05:54;9.20;;;2.83;;
47259;SDS011;32999;52.412;4.890;2023-04-24T14:10:57;8.38;;;1.80;;
47259;SDS011;32999;52.412;4.890;2023-04-24T14:15:59;8.57;;;2.10;;
47259;SDS011;32999;52.412;4.890;2023-04-24T14:21:00;12.90;;;2.38;;
47259;SDS011;32999;52.412;4.890;2023-04-24T14:26:04;11.77;;;1.98;;
47259;SDS011;32999;52.412;4.890;2023-04-24T14:31:06;11.32;;;1.75;;
47259;SDS011;32999;52.412;4.890;2023-04-24T14:36:08;8.23;;;1.90;;
47259;SDS011;32999;52.412;4.890;2023-04-24T14:41:11;10.45;;;1.75;;
47259;SDS011;32999;52.412;4.890;2023-04-24T14:46:13;16.40;;;2.83;;
47259;SDS011;32999;52.412;4.890;2023-04-24T14:51:15;13.43;;;2.72;;
47259;SDS011;32999;52.412;4.890;2023-04-24T14:56:18;11.85;;;2.50;;
47259;SDS011;32999;52.412;4.890;2023-04-24T15:01:20;7.13;;;2.00;;
47259;SDS011;32999;52.412;4.890;2023-04-24T15:06:22;14.82;;;2.58;;
47259;SDS011;32999;52.412;4.890;2023-04-24T15:11:26;15.63;;;2.40;;
47259;SDS011;32999;52.412;4.890;2023-04-24T15:16:28;7.13;;;1.98;;
47259;SDS011;32999;52.412;4.890;2023-04-24T15:21:30;6.22;;;2.63;;
47259;SDS011;32999;52.412;4.890;2023-04-24T15:26:33;16.05;;;2.05;;
47259;SDS011;32999;52.412;4.890;2023-04-24T15:31:35;12.32;;;2.38;;
47259;SDS011;32999;52.412;4.890;2023-04-24T15:36:39;13.93;;;1.70;;
47259;SDS011;32999;52.412;4.890;2023-04-24T15:41:42;10.68;;;1.67;;
47259;SDS011;32999;52.412;4.890;2023-04-24T15:46:44;6.03;;;1.60;;
47259;SDS011;32999;52.412;4.890;2023-04-24T15:51:46;14.77;;;4.72;;
47259;SDS011;32999;52.412;4.890;2023-04-24T15:56:50;7.30;;;1.52;;
47259;SDS011;32999;52.412;4.890;2023-04-24T16:01:51;12.93;;;2.00;;
47259;SDS011;32999;52.412;4.890;2023-04-24T16:06:54;11.95;;;2.53;;
47259;SDS011;32999;52.412;4.890;2023-04-24T16:11:58;12.35;;;1.73;;
47259;SDS011;32999;52.412;4.890;2023-04-24T16:17:01;14.27;;;2.73;;
47259;SDS011;32999;52.412;4.890;2023-04-24T16:22:03;20.00;;;1.85;;
47259;SDS011;32999;52.412;4.890;2023-04-24T16:27:06;9.75;;;2.20;;
47259;SDS011;32999;52.412;4.890;2023-04-24T16:32:08;17.50;;;2.90;;
47259;SDS011;32999;52.412;4.890;2023-04-24T16:37:09;16.85;;;3.28;;
47259;SDS011;32999;52.412;4.890;2023-04-24T16:42:14;12.18;;;1.95;;
47259;SDS011;32999;52.412;4.890;2023-04-24T16:47:16;12.80;;;2.93;;
47259;SDS011;32999;52.412;4.890;2023-04-24T16:52:18;10.75;;;2.03;;
47259;SDS011;32999;52.412;4.890;2023-04-24T16:57:21;11.18;;;1.60;;
47259;SDS011;32999;52.412;4.890;2023-04-24T17:02:23;15.20;;;2.88;;
47259;SDS011;32999;52.412;4.890;2023-04-24T17:07:24;13.27;;;3.03;;
47259;SDS011;32999;52.412;4.890;2023-04-24T17:12:28;10.02;;;2.30;;
47259;SDS011;32999;52.412;4.890;2023-04-24T17:17:29;11.98;;;1.98;;
47259;SDS011;32999;52.412;4.890;2023-04-24T17:22:31;14.15;;;3.45;;
47259;SDS011;32999;52.412;4.890;2023-04-24T17:27:35;8.30;;;2.03;;
47259;SDS011;32999;52.412;4.890;2023-04-24T17:32:36;7.55;;;1.15;;
47259;SDS011;32999;52.412;4.890;2023-04-24T17:37:38;3.53;;;1.10;;
47259;SDS011;32999;52.412;4.890;2023-04-24T17:42:41;9.18;;;1.75;;
47259;SDS011;32999;52.412;4.890;2023-04-24T17:47:43;9.15;;;1.92;;
47259;SDS011;32999;52.412;4.890;2023-04-24T17:52:45;9.30;;;1.35;;
47259;SDS011;32999;52.412;4.890;2023-04-24T17:57:48;10.68;;;2.03;;
47259;SDS011;32999;52.412;4.890;2023-04-24T18:02:50;9.00;;;1.30;;
47259;SDS011;32999;52.412;4.890;2023-04-24T18:07:54;6.90;;;1.23;;
47259;SDS011;32999;52.412;4.890;2023-04-24T18:18:03;4.82;;;0.98;;
47259;SDS011;32999;52.412;4.890;2023-04-24T18:23:05;6.50;;;1.45;;
47259;SDS011;32999;52.412;4.890;2023-04-24T18:28:08;9.13;;;0.80;;
47259;SDS011;32999;52.412;4.890;2023-04-24T18:33:10;7.03;;;1.00;;
47259;SDS011;32999;52.412;4.890;2023-04-24T18:38:11;3.70;;;0.80;;
47259;SDS011;32999;52.412;4.890;2023-04-24T18:43:28;7.68;;;1.20;;
47259;SDS011;32999;52.412;4.890;2023-04-24T18:48:29;7.50;;;1.33;;
47259;SDS011;32999;52.412;4.890;2023-04-24T18:53:32;6.47;;;1.15;;
47259;SDS011;32999;52.412;4.890;2023-04-24T18:58:41;10.77;;;1.40;;
47259;SDS011;32999;52.412;4.890;2023-04-24T19:03:51;6.25;;;1.35;;
47259;SDS011;32999;52.412;4.890;2023-04-24T19:08:55;10.45;;;1.58;;
47259;SDS011;32999;52.412;4.890;2023-04-24T19:13:58;6.00;;;1.30;;
47259;SDS011;32999;52.412;4.890;2023-04-24T20:05:58;4.90;;;1.08;;
47259;SDS011;32999;52.412;4.890;2023-04-24T20:35:03;6.78;;;2.28;;
47259;SDS011;32999;52.412;4.890;2023-04-24T20:40:24;11.35;;;2.97;;
47259;SDS011;32999;52.412;4.890;2023-04-24T21:33:22;23.65;;;4.28;;
47259;SDS011;32999;52.412;4.890;2023-04-24T21:46:07;17.42;;;2.67;;
47259;SDS011;32999;52.412;4.890;2023-04-24T21:51:08;14.15;;;3.17;;
